Aktualne dane pomiarowe

Uwaga, wersja testowa! Automatyczne pobieranie danych za pomocą narzędzi lub skryptów to umożliwiających jest zabronione.

Dane meteo z obszaru Polski uzyskane na podstawie depesz SYNOP pobieranych co godzinę z NWS. Najedź myszką na symbol przedstawiony w tabeli, aby uzyskać informacje co do jego znaczenia. Prosimy pamiętać, że to testowa wersja strony, która jeszcze nie jest ukończona. Stworzono również jest krótki FAQ dotyczący korzystania z tej podstrony Anomalie temperatury w chwili obecnej odniesione są do okresu referencyjnego 1951-2016. Okres ten będzie później zmieniony na 1981-2010. Kliknij ikonę aby pobrać plik CSV. Kliknij ikonę aby wygenerować mapę synoptyczną dla danego terminu.

Wybierz Datę:    

        

Katowice (12560)

Dane terminowe dla wybranej stacji. Kliknij datę, aby otrzymać dane z tego terminu dla wszystkich stacji.

TemperaturaZachmurzenieWiatrCiśnienieOpadyPogoda
 Data t td wb tx tn tg rh  Nt Nl Cl Cm Ch ws wd g1 g2 wx mslp ppp ch 24h 12h t ww ww w1 w2  
2019-08-08 23:00:00 14.6 12.3 13.0--- 8620.0wx-wx1wx--11014.3 981.2 0.7----22----
2019-08-08 22:00:00 16.8 14.3 15.1--- 8520.0wx-wx2wx--21014.0 981.1 0.9----22----
2019-08-08 21:00:00 18.1 14.0 15.3--- 7720.0wx-wx2wx--21013.5 980.8 0.8----22----
2019-08-08 20:00:00 19.8 13.7 15.8--- 6830.0wx-wxwx3wx---1013.0 980.5 0.7---------
2019-08-08 19:00:00 18.5 14.0 15.5--- 7530.0wx-wxwx2wx--21012.9 980.2 0.4---------
2019-08-08 18:00:00 21.7 13.8 16.6 25.5 17.5- 6130.0wxwxwxwxwx1wx--11012.3 980.0 0.1- 0.012------
2019-08-08 17:00:00 23.4 13.0 16.9--- 5230.0wxwxwxwx4wx--41011.9 979.8 -0.2---------
2019-08-08 16:00:00 24.2 11.2 16.4--- 4430.0wxwxwxwx4wx---1011.8 979.8 -0.5---------
2019-08-08 15:00:00 25.5 10.5 16.6--- 3930.0wxwxwxwx2wx---1011.8 979.9 -0.6---------
2019-08-08 14:00:00 24.3 9.8 15.8--- 4050.0wxwxwxwx3wx--31012.0 980.0 -0.3---------
2019-08-08 13:00:00 24.8 10.3 16.2--- 4030.0wxwxwxwxwx3wx--31012.3 980.3 0.4---------
2019-08-08 12:00:00 24.3 11.3 16.5--- 4430.0wxwxwxwx5wx-951012.5 980.5 0.7- 0.06------
2019-08-08 11:00:00 23.8 10.5 15.9--- 4330.0wxwxwxwx3wx-931012.4 980.3 0.7---------
2019-08-08 10:00:00 23.3 13.2 17.0--- 5330.0wxwxwxwx3wx--31012.0 979.9 0.7---------
2019-08-08 09:00:00 21.7 14.8 17.2--- 6530.0wxwxwx3wx--31012.1 979.8 1.0---------
2019-08-08 08:00:00 20.2 15.2 16.8--- 7320.0wxwxwx3wx--31012.0 979.6 1.6---------
2019-08-08 07:00:00 19.2 16.1 17.0--- 8220.0wxwxwxwx3wx--31011.7 979.2 1.9---------
2019-08-08 06:00:00 17.5 16.4 16.7 23.9 16.9 16 9320.0wxwxwxwx3wx-831011.5 978.8 2.1 12.9 13.012wx-w1- 4.7
2019-08-08 05:00:00 17.4 16.3 16.6--- 9315.0wxwxwxwx2wx---1010.7 978.0 1.7---------
2019-08-08 04:00:00 16.9 15.6 16.0--- 9220.0wxwxwxwxwx2wx---1010.0 977.3 1.4---------
2019-08-08 03:00:00 17.2 16.4 16.6--- 9530.0wxwxwx3wx-831009.4 976.7 1.7---wx-w1--
2019-08-08 02:00:00 17.6 16.6 16.9--- 945.0wxwxwx3wx--31008.9 976.3 1.1---wx---
2019-08-08 01:00:00 18.2 17.6 17.8--- 9610.0wxwxwx3wx--31008.5 975.9 0.3---wx---
2019-08-08 00:00:00 18.2 17.4 17.6--- 9510.0wxwxwx1wx--11007.5 975.0 0.3- 9.06wx-w1--
2019-08-07 23:00:00 18.6 17.4 17.7--- 9310.0wxwxwx1wx--11007.7 975.2 0.4---wx-w1w2--
2019-08-07 22:00:00 19.6 17.9 18.4--- 9010.0wxwxwx2wx--21008.0 975.6 1.4---wx---
2019-08-07 21:00:00 19.6 17.6 18.2--- 8830.0wxwxwx1wx---1007.1 974.7 0.5---wx-w1--
2019-08-07 20:00:00 21.2 17.6 18.7--- 8020.0wxwxwxwx3wx---1007.0 974.8 0.6---wx---
2019-08-07 19:00:00 22.8 16.6 18.6--- 6830.0wxwxwxwx1wx---1006.2 974.2 -0.4---wx-w1--
2019-08-07 18:00:00 23.9 17.4 19.5 28.5 21.4- 6730.0wxwxwxwx0--1001006.1 974.2 -0.5--12wx---
2019-08-07 17:00:00 25.8 16.1 19.5--- 5530.0wxwxwxwx3wx--31005.9 974.2 -1.1---------
2019-08-07 16:00:00 27.8 14.8 19.6--- 4530.0wxwxwxwx4wx--41006.1 974.6 -1.2---------
2019-08-07 15:00:00 27.8 15.1 19.7--- 4630.0wxwxwxwx4wx-1041006.2 974.7 -1.3---------
2019-08-07 14:00:00 28.3 15.2 20.0--- 4530.0wxwxwxwx4wx---1006.7 975.3 -1.2---------
2019-08-07 13:00:00 27.1 18.7 21.4--- 6030.0wxwxwxwx4wx--41007.4 975.8 -1.3---------
2019-08-07 12:00:00 26.1 17.7 20.5--- 6030.0wxwxwxwx2wx--21007.7 976.0 -1.4- 0.06------
2019-08-07 11:00:00 25.2 18.2 20.4--- 6530.0wxwxwxwx2wx--21008.3 976.5 -0.8---------
2019-08-07 10:00:00 24.0 17.7 19.7--- 6830.0wxwxwxwxwx1wx--11009.0 977.1 0.0---------
2019-08-07 09:00:00 22.8 17.0 18.9--- 7030.0wxwxwxwx1wx---1009.5 977.4 0.3---------
2019-08-07 08:00:00 23.0 17.7 19.4--- 7230.0wxwxwxwx1wx--11009.4 977.3 0.0---------
2019-08-07 07:00:00 21.9 17.3 18.7--- 7530.0wx-wx1wx--11009.3 977.1 -0.4---------
2019-08-07 06:00:00 21.4 18.2 19.1 21.9 15.6 14 8230.0wxwxwxwx1wx--11009.3 977.1 -0.3 8.7 0.412----- 8.4
2019-08-07 05:00:00 18.9 17.4 17.8--- 9130.0wxwxwxwxwx1wx--11009.8 977.3 -0.2---------
2019-08-07 04:00:00 18.0 16.2 16.7--- 8920.0wxwxwxwxwx2wx---1010.1 977.5 -0.2---------
2019-08-07 03:00:00 17.6 15.8 16.3--- 8920.0wx-wxwx3wx--31010.1 977.4 -0.5---------
2019-08-07 02:00:00 17.6 15.9 16.4--- 9020.0wx-wx3wx--31010.2 977.5 -0.6---------
2019-08-07 01:00:00 16.6 16.0 16.1--- 9620.0wx-wx2wx--21010.5 977.7 -0.6---------
2019-08-07 00:00:00 17.0 15.7 16.1--- 9220.0wx-wxwx1wx--11010.7 977.9 -0.4- 0.46wx-w1--
1.8 ms

 

Print Friendly, PDF & Email